sensor_id;sensor_type;location;lat;lon;timestamp;pressure;altitude;pressure_sealevel;temperature;humidity
36520;BME280;40269;46.742;9.778;2023-06-19T00:00:16;85841.15;;;13.74;40.23
36520;BME280;40269;46.742;9.778;2023-06-19T00:02:43;85843.18;;;15.45;37.70
36520;BME280;40269;46.742;9.778;2023-06-19T00:05:11;85843.94;;;13.81;39.83
36520;BME280;40269;46.742;9.778;2023-06-19T00:07:39;85844.85;;;14.06;39.34
36520;BME280;40269;46.742;9.778;2023-06-19T00:10:07;85845.27;;;13.96;39.10
36520;BME280;40269;46.742;9.778;2023-06-19T00:12:34;85845.22;;;14.65;37.53
36520;BME280;40269;46.742;9.778;2023-06-19T00:15:02;85847.74;;;15.78;35.60
36520;BME280;40269;46.742;9.778;2023-06-19T00:17:29;85849.43;;;13.56;39.83
36520;BME280;40269;46.742;9.778;2023-06-19T00:19:55;85851.88;;;13.84;40.30
36520;BME280;40269;46.742;9.778;2023-06-19T00:22:22;85851.79;;;12.41;42.63
36520;BME280;40269;46.742;9.778;2023-06-19T00:24:49;85850.71;;;13.38;40.83
36520;BME280;40269;46.742;9.778;2023-06-19T00:27:16;85851.67;;;13.36;40.86
36520;BME280;40269;46.742;9.778;2023-06-19T00:29:43;85851.47;;;14.03;39.82
36520;BME280;40269;46.742;9.778;2023-06-19T00:32:10;85852.79;;;14.09;39.76
36520;BME280;40269;46.742;9.778;2023-06-19T00:34:37;85853.26;;;13.53;40.14
36520;BME280;40269;46.742;9.778;2023-06-19T00:37:04;85854.18;;;14.07;39.29
36520;BME280;40269;46.742;9.778;2023-06-19T00:39:31;85853.27;;;14.73;38.27
36520;BME280;40269;46.742;9.778;2023-06-19T00:41:58;85855.03;;;14.94;37.44
36520;BME280;40269;46.742;9.778;2023-06-19T00:44:25;85861.08;;;14.30;38.82
36520;BME280;40269;46.742;9.778;2023-06-19T00:46:56;85861.70;;;12.33;41.66
36520;BME280;40269;46.742;9.778;2023-06-19T00:49:24;85864.80;;;10.60;46.05
36520;BME280;40269;46.742;9.778;2023-06-19T00:51:52;85870.10;;;13.19;41.09
36520;BME280;40269;46.742;9.778;2023-06-19T00:54:19;85876.49;;;13.98;40.02
36520;BME280;40269;46.742;9.778;2023-06-19T00:56:47;85873.58;;;14.03;38.98
36520;BME280;40269;46.742;9.778;2023-06-19T00:59:17;85872.57;;;14.20;38.55
36520;BME280;40269;46.742;9.778;2023-06-19T01:01:44;85870.99;;;13.45;40.38
36520;BME280;40269;46.742;9.778;2023-06-19T01:04:12;85869.10;;;13.05;39.97
36520;BME280;40269;46.742;9.778;2023-06-19T01:06:43;85872.98;;;14.45;38.98
36520;BME280;40269;46.742;9.778;2023-06-19T01:09:15;85874.85;;;11.94;43.25
36520;BME280;40269;46.742;9.778;2023-06-19T01:11:46;85877.47;;;12.90;41.54
36520;BME280;40269;46.742;9.778;2023-06-19T01:14:18;85876.52;;;14.74;38.82
36520;BME280;40269;46.742;9.778;2023-06-19T01:16:48;85874.74;;;14.46;39.00
36520;BME280;40269;46.742;9.778;2023-06-19T01:19:18;85877.28;;;14.11;39.59
36520;BME280;40269;46.742;9.778;2023-06-19T01:21:46;85877.46;;;15.06;37.28
36520;BME280;40269;46.742;9.778;2023-06-19T01:24:13;85875.17;;;14.39;38.72
36520;BME280;40269;46.742;9.778;2023-06-19T01:26:40;85876.37;;;12.55;42.05
36520;BME280;40269;46.742;9.778;2023-06-19T01:29:08;85877.18;;;11.17;45.14
36520;BME280;40269;46.742;9.778;2023-06-19T01:31:38;85873.76;;;13.20;41.22
36520;BME280;40269;46.742;9.778;2023-06-19T01:34:10;85872.11;;;13.58;39.25
36520;BME280;40269;46.742;9.778;2023-06-19T01:36:39;85869.30;;;12.64;41.68
36520;BME280;40269;46.742;9.778;2023-06-19T01:39:07;85870.18;;;12.39;41.63
36520;BME280;40269;46.742;9.778;2023-06-19T01:41:36;85871.61;;;11.11;44.52
36520;BME280;40269;46.742;9.778;2023-06-19T01:44:04;85876.73;;;9.78;47.59
36520;BME280;40269;46.742;9.778;2023-06-19T01:46:31;85879.41;;;9.96;48.56
36520;BME280;40269;46.742;9.778;2023-06-19T01:48:58;85878.77;;;10.25;47.41
36520;BME280;40269;46.742;9.778;2023-06-19T01:51:26;85874.59;;;11.25;44.65
36520;BME280;40269;46.742;9.778;2023-06-19T01:53:53;85873.75;;;12.82;42.61
36520;BME280;40269;46.742;9.778;2023-06-19T01:56:19;85878.20;;;9.87;47.71
36520;BME280;40269;46.742;9.778;2023-06-19T01:58:46;85875.35;;;11.90;44.02
36520;BME280;40269;46.742;9.778;2023-06-19T02:01:14;85875.57;;;11.44;43.26
36520;BME280;40269;46.742;9.778;2023-06-19T02:03:41;85876.77;;;12.74;40.87
36520;BME280;40269;46.742;9.778;2023-06-19T02:06:07;85879.56;;;13.27;39.97
36520;BME280;40269;46.742;9.778;2023-06-19T02:08:35;85879.14;;;13.13;39.81
36520;BME280;40269;46.742;9.778;2023-06-19T02:11:02;85886.02;;;14.20;39.40
36520;BME280;40269;46.742;9.778;2023-06-19T02:13:29;85891.45;;;13.64;39.20
36520;BME280;40269;46.742;9.778;2023-06-19T02:15:56;85891.64;;;12.54;41.24
36520;BME280;40269;46.742;9.778;2023-06-19T02:18:23;85892.18;;;11.15;43.44
36520;BME280;40269;46.742;9.778;2023-06-19T02:20:50;85891.82;;;12.51;41.10
36520;BME280;40269;46.742;9.778;2023-06-19T02:23:16;85896.31;;;12.08;42.32
36520;BME280;40269;46.742;9.778;2023-06-19T02:25:43;85894.92;;;11.26;44.15
36520;BME280;40269;46.742;9.778;2023-06-19T02:28:11;85899.83;;;10.87;45.89
36520;BME280;40269;46.742;9.778;2023-06-19T02:30:38;85902.01;;;9.86;47.88
36520;BME280;40269;46.742;9.778;2023-06-19T02:33:05;85896.97;;;11.34;44.80
36520;BME280;40269;46.742;9.778;2023-06-19T02:35:32;85899.80;;;11.71;43.55
36520;BME280;40269;46.742;9.778;2023-06-19T02:37:59;85896.10;;;13.01;40.50
36520;BME280;40269;46.742;9.778;2023-06-19T02:40:26;85897.56;;;13.62;40.02
36520;BME280;40269;46.742;9.778;2023-06-19T02:42:53;85897.92;;;13.74;39.35
36520;BME280;40269;46.742;9.778;2023-06-19T02:45:20;85895.48;;;13.94;39.29
36520;BME280;40269;46.742;9.778;2023-06-19T02:47:46;85894.41;;;11.10;44.36
36520;BME280;40269;46.742;9.778;2023-06-19T02:50:14;85897.64;;;10.28;47.23
36520;BME280;40269;46.742;9.778;2023-06-19T02:52:40;85900.95;;;8.86;50.11
36520;BME280;40269;46.742;9.778;2023-06-19T02:55:08;85897.66;;;9.94;47.32
36520;BME280;40269;46.742;9.778;2023-06-19T02:57:35;85893.87;;;12.18;42.70
36520;BME280;40269;46.742;9.778;2023-06-19T03:00:02;85893.18;;;11.42;44.99
36520;BME280;40269;46.742;9.778;2023-06-19T03:02:29;85896.60;;;10.44;45.94
36520;BME280;40269;46.742;9.778;2023-06-19T03:04:56;85901.10;;;10.97;45.00
36520;BME280;40269;46.742;9.778;2023-06-19T03:07:23;85897.34;;;11.84;43.75
36520;BME280;40269;46.742;9.778;2023-06-19T03:09:50;85900.16;;;12.81;41.40
36520;BME280;40269;46.742;9.778;2023-06-19T03:12:17;85899.69;;;13.54;40.64
36520;BME280;40269;46.742;9.778;2023-06-19T03:14:44;85899.63;;;12.79;40.34
36520;BME280;40269;46.742;9.778;2023-06-19T03:17:12;85897.29;;;13.07;40.04
36520;BME280;40269;46.742;9.778;2023-06-19T03:19:39;85895.79;;;13.06;39.45
36520;BME280;40269;46.742;9.778;2023-06-19T03:22:06;85893.36;;;12.68;39.76
36520;BME280;40269;46.742;9.778;2023-06-19T03:24:33;85897.51;;;12.04;41.98
36520;BME280;40269;46.742;9.778;2023-06-19T03:26:59;85895.70;;;13.04;39.95
36520;BME280;40269;46.742;9.778;2023-06-19T03:29:26;85894.57;;;13.39;40.13
36520;BME280;40269;46.742;9.778;2023-06-19T03:31:53;85898.42;;;14.08;39.53
36520;BME280;40269;46.742;9.778;2023-06-19T03:34:20;85900.98;;;13.06;40.18
36520;BME280;40269;46.742;9.778;2023-06-19T03:36:47;85899.54;;;13.56;38.92
36520;BME280;40269;46.742;9.778;2023-06-19T03:39:14;85894.99;;;13.06;39.51
36520;BME280;40269;46.742;9.778;2023-06-19T03:41:41;85893.37;;;13.08;39.77
36520;BME280;40269;46.742;9.778;2023-06-19T03:44:08;85894.89;;;12.80;40.44
36520;BME280;40269;46.742;9.778;2023-06-19T03:46:34;85901.79;;;9.89;47.18
36520;BME280;40269;46.742;9.778;2023-06-19T03:49:02;85900.66;;;10.20;46.82
36520;BME280;40269;46.742;9.778;2023-06-19T03:51:28;85895.31;;;10.20;46.33
36520;BME280;40269;46.742;9.778;2023-06-19T03:53:56;85899.29;;;11.03;45.56
36520;BME280;40269;46.742;9.778;2023-06-19T03:56:22;85900.10;;;8.44;50.70
36520;BME280;40269;46.742;9.778;2023-06-19T03:58:49;85905.67;;;11.51;44.14
36520;BME280;40269;46.742;9.778;2023-06-19T04:01:16;85898.97;;;12.55;41.57
36520;BME280;40269;46.742;9.778;2023-06-19T04:03:43;85895.51;;;11.76;42.76
36520;BME280;40269;46.742;9.778;2023-06-19T04:06:10;85893.57;;;11.85;42.48
36520;BME280;40269;46.742;9.778;2023-06-19T04:08:37;85893.35;;;11.60;42.42
36520;BME280;40269;46.742;9.778;2023-06-19T04:11:04;85897.39;;;10.16;46.05
36520;BME280;40269;46.742;9.778;2023-06-19T04:13:31;85900.80;;;8.93;49.08
36520;BME280;40269;46.742;9.778;2023-06-19T04:15:58;85903.16;;;9.51;48.97
36520;BME280;40269;46.742;9.778;2023-06-19T04:18:25;85895.78;;;11.54;42.70
36520;BME280;40269;46.742;9.778;2023-06-19T04:20:51;85896.96;;;12.45;42.61
36520;BME280;40269;46.742;9.778;2023-06-19T04:23:18;85899.27;;;13.11;40.03
36520;BME280;40269;46.742;9.778;2023-06-19T04:25:45;85898.87;;;12.94;40.96
36520;BME280;40269;46.742;9.778;2023-06-19T04:28:12;85894.39;;;13.23;40.00
36520;BME280;40269;46.742;9.778;2023-06-19T04:30:40;85894.38;;;12.63;42.16
36520;BME280;40269;46.742;9.778;2023-06-19T04:33:07;85893.19;;;12.57;42.45
36520;BME280;40269;46.742;9.778;2023-06-19T04:35:34;85894.26;;;11.55;44.85
36520;BME280;40269;46.742;9.778;2023-06-19T04:38:01;85898.88;;;9.71;47.62
36520;BME280;40269;46.742;9.778;2023-06-19T04:40:29;85901.54;;;9.86;47.29
36520;BME280;40269;46.742;9.778;2023-06-19T04:42:56;85898.52;;;9.53;48.28
36520;BME280;40269;46.742;9.778;2023-06-19T04:45:23;85900.02;;;11.10;45.61
36520;BME280;40269;46.742;9.778;2023-06-19T04:47:50;85896.63;;;9.82;47.73
36520;BME280;40269;46.742;9.778;2023-06-19T04:50:17;85894.77;;;10.27;47.26
36520;BME280;40269;46.742;9.778;2023-06-19T04:52:44;85893.78;;;9.77;47.79
36520;BME280;40269;46.742;9.778;2023-06-19T04:55:11;85894.83;;;8.64;50.11
36520;BME280;40269;46.742;9.778;2023-06-19T04:57:38;85893.55;;;9.85;47.97
36520;BME280;40269;46.742;9.778;2023-06-19T05:00:06;85891.01;;;10.68;47.21
36520;BME280;40269;46.742;9.778;2023-06-19T05:02:34;85890.00;;;10.80;46.43
36520;BME280;40269;46.742;9.778;2023-06-19T05:05:00;85886.30;;;11.81;44.05
36520;BME280;40269;46.742;9.778;2023-06-19T05:07:28;85883.07;;;12.16;43.07
36520;BME280;40269;46.742;9.778;2023-06-19T05:09:55;85880.12;;;13.25;41.33
36520;BME280;40269;46.742;9.778;2023-06-19T05:12:22;85880.74;;;12.93;41.42
36520;BME280;40269;46.742;9.778;2023-06-19T05:14:49;85881.27;;;12.63;41.47
36520;BME280;40269;46.742;9.778;2023-06-19T05:17:16;85883.90;;;12.79;41.36
36520;BME280;40269;46.742;9.778;2023-06-19T05:19:43;85892.43;;;12.73;42.45
36520;BME280;40269;46.742;9.778;2023-06-19T05:22:10;85892.36;;;13.38;41.55
36520;BME280;40269;46.742;9.778;2023-06-19T05:24:37;85891.45;;;13.14;41.18
36520;BME280;40269;46.742;9.778;2023-06-19T05:27:05;85888.50;;;13.75;40.54
36520;BME280;40269;46.742;9.778;2023-06-19T05:29:32;85888.31;;;13.32;41.78
36520;BME280;40269;46.742;9.778;2023-06-19T05:31:59;85888.57;;;11.28;45.67
36520;BME280;40269;46.742;9.778;2023-06-19T05:34:26;85886.08;;;13.13;42.64
36520;BME280;40269;46.742;9.778;2023-06-19T05:36:53;85887.89;;;11.00;47.60
36520;BME280;40269;46.742;9.778;2023-06-19T05:39:20;85883.95;;;13.21;41.65
36520;BME280;40269;46.742;9.778;2023-06-19T05:41:47;85885.75;;;12.12;44.52
36520;BME280;40269;46.742;9.778;2023-06-19T05:44:14;85889.54;;;10.99;47.62
36520;BME280;40269;46.742;9.778;2023-06-19T05:46:41;85884.88;;;12.63;44.72
36520;BME280;40269;46.742;9.778;2023-06-19T05:49:09;85881.25;;;12.38;44.71
36520;BME280;40269;46.742;9.778;2023-06-19T05:51:35;85878.94;;;13.66;42.85
36520;BME280;40269;46.742;9.778;2023-06-19T05:54:02;85880.14;;;13.61;42.37
36520;BME280;40269;46.742;9.778;2023-06-19T05:56:29;85880.68;;;13.52;42.88
36520;BME280;40269;46.742;9.778;2023-06-19T05:58:56;85878.53;;;12.94;44.15
36520;BME280;40269;46.742;9.778;2023-06-19T06:01:23;85879.43;;;12.09;45.86
36520;BME280;40269;46.742;9.778;2023-06-19T06:03:50;85885.32;;;10.77;49.60
36520;BME280;40269;46.742;9.778;2023-06-19T06:06:16;85881.04;;;10.51;50.83
36520;BME280;40269;46.742;9.778;2023-06-19T06:08:43;85882.39;;;10.65;50.60
36520;BME280;40269;46.742;9.778;2023-06-19T06:11:11;85886.03;;;10.92;50.34
36520;BME280;40269;46.742;9.778;2023-06-19T06:13:37;85888.94;;;10.27;52.10
36520;BME280;40269;46.742;9.778;2023-06-19T06:16:04;85886.22;;;9.84;53.23
36520;BME280;40269;46.742;9.778;2023-06-19T06:18:31;85887.75;;;10.85;51.34
36520;BME280;40269;46.742;9.778;2023-06-19T06:20:58;85879.51;;;11.79;49.40
36520;BME280;40269;46.742;9.778;2023-06-19T06:23:25;85886.18;;;10.76;51.85
36520;BME280;40269;46.742;9.778;2023-06-19T06:25:52;85881.80;;;11.35;50.33
36520;BME280;40269;46.742;9.778;2023-06-19T06:28:19;85886.38;;;11.04;51.10
36520;BME280;40269;46.742;9.778;2023-06-19T06:30:46;85879.83;;;11.50;49.82
36520;BME280;40269;46.742;9.778;2023-06-19T06:33:14;85882.40;;;11.77;49.62
36520;BME280;40269;46.742;9.778;2023-06-19T06:35:40;85879.88;;;12.23;47.84
36520;BME280;40269;46.742;9.778;2023-06-19T06:38:07;85879.89;;;12.66;46.17
36520;BME280;40269;46.742;9.778;2023-06-19T06:40:34;85879.54;;;11.52;47.49
36520;BME280;40269;46.742;9.778;2023-06-19T06:43:00;85875.36;;;12.94;46.56
36520;BME280;40269;46.742;9.778;2023-06-19T06:45:28;85877.44;;;12.96;46.96
36520;BME280;40269;46.742;9.778;2023-06-19T06:47:55;85876.20;;;12.91;46.39
36520;BME280;40269;46.742;9.778;2023-06-19T06:50:22;85875.62;;;11.92;48.24
36520;BME280;40269;46.742;9.778;2023-06-19T06:52:49;85876.23;;;12.80;46.95
36520;BME280;40269;46.742;9.778;2023-06-19T06:55:16;85880.06;;;11.69;47.87
36520;BME280;40269;46.742;9.778;2023-06-19T06:57:43;85880.02;;;11.82;48.62
36520;BME280;40269;46.742;9.778;2023-06-19T07:00:11;85884.47;;;12.90;46.23
36520;BME280;40269;46.742;9.778;2023-06-19T07:02:38;85885.31;;;13.30;45.69
36520;BME280;40269;46.742;9.778;2023-06-19T07:05:08;85891.26;;;12.57;47.91
36520;BME280;40269;46.742;9.778;2023-06-19T07:07:35;85889.42;;;12.73;46.25
36520;BME280;40269;46.742;9.778;2023-06-19T07:10:02;85891.25;;;12.89;45.56
36520;BME280;40269;46.742;9.778;2023-06-19T07:12:29;85892.41;;;13.20;45.06
36520;BME280;40269;46.742;9.778;2023-06-19T07:14:56;85890.42;;;13.32;44.38
36520;BME280;40269;46.742;9.778;2023-06-19T07:17:23;85889.11;;;13.16;44.29
36520;BME280;40269;46.742;9.778;2023-06-19T07:19:50;85887.69;;;14.34;43.07
36520;BME280;40269;46.742;9.778;2023-06-19T07:22:17;85890.44;;;13.87;42.15
36520;BME280;40269;46.742;9.778;2023-06-19T07:24:43;85890.94;;;13.59;42.57
36520;BME280;40269;46.742;9.778;2023-06-19T07:27:11;85889.53;;;13.96;42.03
36520;BME280;40269;46.742;9.778;2023-06-19T07:29:38;85892.66;;;15.43;39.27
36520;BME280;40269;46.742;9.778;2023-06-19T07:32:06;85885.53;;;15.14;38.02
36520;BME280;40269;46.742;9.778;2023-06-19T07:34:33;85876.02;;;16.81;36.26
36520;BME280;40269;46.742;9.778;2023-06-19T07:37:00;85878.38;;;15.67;37.44
36520;BME280;40269;46.742;9.778;2023-06-19T07:39:27;85878.17;;;15.36;38.84
36520;BME280;40269;46.742;9.778;2023-06-19T07:41:53;85875.09;;;16.19;38.10
36520;BME280;40269;46.742;9.778;2023-06-19T07:44:20;85865.79;;;16.80;36.85
36520;BME280;40269;46.742;9.778;2023-06-19T07:46:47;85863.64;;;16.84;35.13
36520;BME280;40269;46.742;9.778;2023-06-19T07:49:14;85862.35;;;17.96;33.35
36520;BME280;40269;46.742;9.778;2023-06-19T07:51:41;85856.46;;;18.25;33.91
36520;BME280;40269;46.742;9.778;2023-06-19T07:54:08;85853.55;;;16.28;37.80
36520;BME280;40269;46.742;9.778;2023-06-19T07:56:34;85851.41;;;17.19;37.32
36520;BME280;40269;46.742;9.778;2023-06-19T07:59:01;85845.21;;;17.56;35.63
36520;BME280;40269;46.742;9.778;2023-06-19T08:01:28;85844.67;;;18.50;35.29
36520;BME280;40269;46.742;9.778;2023-06-19T08:03:55;85843.52;;;18.84;34.44
36520;BME280;40269;46.742;9.778;2023-06-19T08:06:21;85840.48;;;18.48;33.67
36520;BME280;40269;46.742;9.778;2023-06-19T08:08:48;85837.98;;;18.53;34.80
36520;BME280;40269;46.742;9.778;2023-06-19T08:11:15;85839.26;;;18.07;35.30
36520;BME280;40269;46.742;9.778;2023-06-19T08:13:42;85835.39;;;18.21;36.18
36520;BME280;40269;46.742;9.778;2023-06-19T08:16:09;85832.39;;;18.03;34.54
36520;BME280;40269;46.742;9.778;2023-06-19T08:18:36;85830.99;;;17.52;34.40
36520;BME280;40269;46.742;9.778;2023-06-19T08:21:04;85832.54;;;17.67;36.05
36520;BME280;40269;46.742;9.778;2023-06-19T08:23:30;85831.90;;;18.18;34.09
36520;BME280;40269;46.742;9.778;2023-06-19T08:25:57;85831.57;;;18.52;34.85
36520;BME280;40269;46.742;9.778;2023-06-19T08:28:24;85834.77;;;19.74;29.70
36520;BME280;40269;46.742;9.778;2023-06-19T08:30:51;85830.27;;;18.05;33.24
36520;BME280;40269;46.742;9.778;2023-06-19T08:33:18;85824.16;;;18.89;33.28
36520;BME280;40269;46.742;9.778;2023-06-19T08:35:44;85825.72;;;18.22;32.46
36520;BME280;40269;46.742;9.778;2023-06-19T08:38:11;85824.45;;;17.37;34.85
36520;BME280;40269;46.742;9.778;2023-06-19T08:40:38;85825.34;;;17.09;35.21
36520;BME280;40269;46.742;9.778;2023-06-19T08:43:05;85824.71;;;17.46;33.49
36520;BME280;40269;46.742;9.778;2023-06-19T08:45:32;85821.89;;;17.83;34.55
36520;BME280;40269;46.742;9.778;2023-06-19T08:48:00;85819.02;;;18.19;32.69
36520;BME280;40269;46.742;9.778;2023-06-19T08:50:26;85818.38;;;18.00;32.10
36520;BME280;40269;46.742;9.778;2023-06-19T08:52:54;85815.01;;;18.92;33.92
36520;BME280;40269;46.742;9.778;2023-06-19T08:55:22;85814.89;;;17.23;33.39
36520;BME280;40269;46.742;9.778;2023-06-19T08:57:50;85812.66;;;17.58;33.27
36520;BME280;40269;46.742;9.778;2023-06-19T09:00:24;85813.73;;;17.89;33.73
36520;BME280;40269;46.742;9.778;2023-06-19T09:02:52;85811.39;;;17.43;33.56
36520;BME280;40269;46.742;9.778;2023-06-19T09:05:19;85814.75;;;18.14;32.78
36520;BME280;40269;46.742;9.778;2023-06-19T09:07:55;85814.00;;;18.14;32.57
36520;BME280;40269;46.742;9.778;2023-06-19T09:10:22;85812.97;;;17.49;32.31
36520;BME280;40269;46.742;9.778;2023-06-19T09:12:58;85811.00;;;18.97;30.95
36520;BME280;40269;46.742;9.778;2023-06-19T09:15:29;85816.61;;;19.41;29.78
36520;BME280;40269;46.742;9.778;2023-06-19T09:18:04;85816.93;;;18.09;31.66
36520;BME280;40269;46.742;9.778;2023-06-19T09:20:33;85813.81;;;17.82;32.07
36520;BME280;40269;46.742;9.778;2023-06-19T09:23:00;85811.00;;;19.30;30.27
36520;BME280;40269;46.742;9.778;2023-06-19T09:25:28;85805.54;;;20.02;31.91
36520;BME280;40269;46.742;9.778;2023-06-19T09:27:55;85799.45;;;21.47;27.95
36520;BME280;40269;46.742;9.778;2023-06-19T09:30:22;85794.44;;;20.67;29.87
36520;BME280;40269;46.742;9.778;2023-06-19T09:32:49;85789.88;;;22.09;30.64
36520;BME280;40269;46.742;9.778;2023-06-19T09:35:17;85793.49;;;20.30;29.92
36520;BME280;40269;46.742;9.778;2023-06-19T09:37:45;85792.95;;;20.69;28.85
36520;BME280;40269;46.742;9.778;2023-06-19T09:40:12;85786.19;;;20.21;30.03
36520;BME280;40269;46.742;9.778;2023-06-19T09:42:41;85786.51;;;20.49;29.99
36520;BME280;40269;46.742;9.778;2023-06-19T09:45:10;85781.12;;;21.61;27.98
36520;BME280;40269;46.742;9.778;2023-06-19T09:47:39;85782.49;;;21.94;26.79
36520;BME280;40269;46.742;9.778;2023-06-19T09:50:12;85781.17;;;21.67;28.09
36520;BME280;40269;46.742;9.778;2023-06-19T09:52:40;85774.94;;;22.25;26.80
36520;BME280;40269;46.742;9.778;2023-06-19T09:55:08;85772.68;;;21.08;28.16
36520;BME280;40269;46.742;9.778;2023-06-19T09:57:36;85765.12;;;21.28;27.80
36520;BME280;40269;46.742;9.778;2023-06-19T10:00:06;85763.49;;;21.80;28.03
36520;BME280;40269;46.742;9.778;2023-06-19T10:02:35;85762.28;;;22.92;27.06
36520;BME280;40269;46.742;9.778;2023-06-19T10:05:02;85762.43;;;22.40;26.97
36520;BME280;40269;46.742;9.778;2023-06-19T10:07:34;85759.14;;;23.28;26.53
36520;BME280;40269;46.742;9.778;2023-06-19T10:10:03;85759.49;;;23.03;25.08
36520;BME280;40269;46.742;9.778;2023-06-19T10:12:39;85760.02;;;24.20;24.06
36520;BME280;40269;46.742;9.778;2023-06-19T10:15:10;85754.68;;;22.06;26.47
36520;BME280;40269;46.742;9.778;2023-06-19T10:17:38;85752.86;;;23.01;24.94
36520;BME280;40269;46.742;9.778;2023-06-19T10:20:06;85747.43;;;23.82;24.17
36520;BME280;40269;46.742;9.778;2023-06-19T10:22:33;85750.15;;;22.31;25.93
36520;BME280;40269;46.742;9.778;2023-06-19T10:25:00;85748.14;;;22.41;25.16
36520;BME280;40269;46.742;9.778;2023-06-19T10:27:27;85750.39;;;22.52;25.78
36520;BME280;40269;46.742;9.778;2023-06-19T10:29:54;85751.41;;;23.71;25.28
36520;BME280;40269;46.742;9.778;2023-06-19T10:32:22;85749.76;;;24.22;23.65
36520;BME280;40269;46.742;9.778;2023-06-19T10:34:48;85748.72;;;25.51;22.74
36520;BME280;40269;46.742;9.778;2023-06-19T10:37:15;85745.88;;;23.75;23.24
36520;BME280;40269;46.742;9.778;2023-06-19T10:39:42;85742.14;;;24.30;22.90
36520;BME280;40269;46.742;9.778;2023-06-19T10:42:10;85737.81;;;24.51;22.77
36520;BME280;40269;46.742;9.778;2023-06-19T10:44:38;85736.02;;;25.16;21.90
36520;BME280;40269;46.742;9.778;2023-06-19T10:47:05;85738.62;;;24.02;23.12
36520;BME280;40269;46.742;9.778;2023-06-19T10:49:32;85735.79;;;22.53;24.97
36520;BME280;40269;46.742;9.778;2023-06-19T10:51:59;85731.33;;;22.35;25.49
36520;BME280;40269;46.742;9.778;2023-06-19T10:54:28;85729.33;;;22.77;24.52
36520;BME280;40269;46.742;9.778;2023-06-19T10:56:54;85729.82;;;24.50;23.02
36520;BME280;40269;46.742;9.778;2023-06-19T10:59:21;85733.77;;;24.02;22.37
36520;BME280;40269;46.742;9.778;2023-06-19T11:01:48;85723.59;;;26.01;20.81
36520;BME280;40269;46.742;9.778;2023-06-19T11:04:15;85730.85;;;24.93;20.63
36520;BME280;40269;46.742;9.778;2023-06-19T11:06:44;85724.40;;;25.09;21.45
36520;BME280;40269;46.742;9.778;2023-06-19T11:09:12;85723.73;;;25.52;19.96
36520;BME280;40269;46.742;9.778;2023-06-19T11:11:41;85719.64;;;25.77;20.99
36520;BME280;40269;46.742;9.778;2023-06-19T11:14:09;85710.02;;;25.63;20.60
36520;BME280;40269;46.742;9.778;2023-06-19T11:16:38;85712.00;;;27.73;18.58
36520;BME280;40269;46.742;9.778;2023-06-19T11:19:07;85711.52;;;27.77;18.87
36520;BME280;40269;46.742;9.778;2023-06-19T11:21:35;85710.57;;;27.93;17.86
36520;BME280;40269;46.742;9.778;2023-06-19T11:24:04;85705.31;;;26.33;19.40
36520;BME280;40269;46.742;9.778;2023-06-19T11:26:35;85703.74;;;28.42;18.75
36520;BME280;40269;46.742;9.778;2023-06-19T11:29:12;85699.99;;;27.95;17.90
36520;BME280;40269;46.742;9.778;2023-06-19T11:31:39;85699.64;;;30.19;17.22
36520;BME280;40269;46.742;9.778;2023-06-19T11:34:06;85698.67;;;27.92;18.42
36520;BME280;40269;46.742;9.778;2023-06-19T11:36:32;85698.05;;;28.80;16.63
36520;BME280;40269;46.742;9.778;2023-06-19T11:38:59;85696.66;;;29.51;15.95
36520;BME280;40269;46.742;9.778;2023-06-19T11:41:28;85697.04;;;29.25;16.48
36520;BME280;40269;46.742;9.778;2023-06-19T11:43:59;85690.74;;;28.43;17.29
36520;BME280;40269;46.742;9.778;2023-06-19T11:46:30;85691.23;;;28.04;17.60
36520;BME280;40269;46.742;9.778;2023-06-19T11:49:15;85695.65;;;29.75;16.34
36520;BME280;40269;46.742;9.778;2023-06-19T11:51:42;85682.28;;;31.35;14.72
36520;BME280;40269;46.742;9.778;2023-06-19T11:54:11;85684.43;;;31.34;15.08
36520;BME280;40269;46.742;9.778;2023-06-19T11:56:39;85684.23;;;30.81;14.49
36520;BME280;40269;46.742;9.778;2023-06-19T11:59:06;85678.82;;;30.61;16.85
36520;BME280;40269;46.742;9.778;2023-06-19T12:01:34;85684.75;;;30.17;15.69
36520;BME280;40269;46.742;9.778;2023-06-19T12:04:03;85683.32;;;29.76;15.50
36520;BME280;40269;46.742;9.778;2023-06-19T12:06:30;85683.56;;;28.91;15.74
36520;BME280;40269;46.742;9.778;2023-06-19T12:08:58;85680.41;;;32.66;13.40
36520;BME280;40269;46.742;9.778;2023-06-19T12:11:25;85680.28;;;32.23;15.73
36520;BME280;40269;46.742;9.778;2023-06-19T12:13:52;85682.53;;;33.41;14.09
36520;BME280;40269;46.742;9.778;2023-06-19T12:16:19;85687.89;;;31.27;13.84
36520;BME280;40269;46.742;9.778;2023-06-19T12:18:47;85689.66;;;30.17;15.29
36520;BME280;40269;46.742;9.778;2023-06-19T12:21:14;85682.24;;;30.57;16.26
36520;BME280;40269;46.742;9.778;2023-06-19T12:23:41;85687.62;;;34.18;15.03
36520;BME280;40269;46.742;9.778;2023-06-19T12:26:08;85689.52;;;32.34;14.87
36520;BME280;40269;46.742;9.778;2023-06-19T12:28:35;85688.20;;;33.61;16.04
36520;BME280;40269;46.742;9.778;2023-06-19T12:31:03;85687.92;;;31.79;15.79
36520;BME280;40269;46.742;9.778;2023-06-19T12:33:30;85686.53;;;30.76;17.52
36520;BME280;40269;46.742;9.778;2023-06-19T12:35:57;85690.68;;;30.15;18.36
36520;BME280;40269;46.742;9.778;2023-06-19T12:38:25;85685.99;;;29.00;18.47
36520;BME280;40269;46.742;9.778;2023-06-19T12:40:52;85686.25;;;29.39;19.13
36520;BME280;40269;46.742;9.778;2023-06-19T12:43:19;85688.81;;;30.26;18.00
36520;BME280;40269;46.742;9.778;2023-06-19T12:45:46;85686.70;;;28.48;19.44
36520;BME280;40269;46.742;9.778;2023-06-19T12:48:12;85687.60;;;28.61;19.62
36520;BME280;40269;46.742;9.778;2023-06-19T12:50:39;85680.63;;;26.09;23.08
36520;BME280;40269;46.742;9.778;2023-06-19T12:53:06;85679.14;;;26.89;22.65
36520;BME280;40269;46.742;9.778;2023-06-19T12:55:33;85683.45;;;26.87;23.27
36520;BME280;40269;46.742;9.778;2023-06-19T12:58:00;85686.80;;;25.85;24.16
36520;BME280;40269;46.742;9.778;2023-06-19T13:00:27;85686.90;;;26.04;23.22